Portada
METAR-TAF:

METAR-TAF

Aeroports :

Phitsanulok, Tailàndia

latitud: 16-46-23N, longitud: 100-16-56E, altitud: 47 m

Observació

L'informe es va fer fa 51 minuts, a les 07:00 UTC
Vent 4 kt del Nord-Oest, variant entre Oest/Sud-Oest i Nord-Est
Temperatura 32°C
Humitat 52%
Pressió 1011 hPa
Visibilitat 10 km o més
Núvols disperses a una alçada de 2000 ft

METAR: VTPP 110700Z 31004KT 250V040 9999 SCT020 32/21 Q1011 NOSIG

Hora: 14:51 (07:51 UTC)

Pronòstic

L'informe es va fer fa 2 hores i 51 minuts, a les 05:00 UTC
Pronòstic vàlid del 11 a les 06 UTC al 12 a les 06 UTC
Vent 5 kt del Est/Sud-Est
Visibilitat 10 km o més
Núvols disperses a una alçada de 2500 ft

TAF: VTPP 110500Z 1106/1206 12005KT 9999 SCT025

Observacions i pronòstics meteorològics de més de 4000 aeroports (METAR i TAF).

Les estacions disponibles són els punts grocs i vermells al mapa.

Posi el ratolí al punt desitjat per veure el nom de l'estació.

Feu clic per veure les observacions i els pronòstics meteorològics.

Per canviar el mapa: feu clic els botons verds amb una creu de color negre per apropar; al botó verd amb un guió per allunyar la imatge; o en les fletxes verdes per a mapes adjacents.


METAR-TAF: